createdAt,value
2018-06-27T00:01:09.495Z,0
2018-06-27T00:02:19.602Z,0
2018-06-27T00:03:29.396Z,4
2018-06-27T00:04:39.195Z,4
2018-06-27T00:05:49.003Z,4
2018-06-27T00:06:58.811Z,4
2018-06-27T00:08:08.677Z,4
2018-06-27T00:09:18.193Z,4
2018-06-27T00:10:28.273Z,4
2018-06-27T00:11:38.088Z,4
2018-06-27T00:12:48.167Z,4
2018-06-27T00:13:58.031Z,4
2018-06-27T00:15:08.089Z,0
2018-06-27T00:16:17.902Z,0
2018-06-27T00:17:27.439Z,4
2018-06-27T00:18:37.519Z,4
2018-06-27T00:19:47.664Z,4
2018-06-27T00:20:57.750Z,4
2018-06-27T00:22:07.297Z,4
2018-06-27T00:23:17.371Z,4
2018-06-27T00:24:27.170Z,8
2018-06-27T00:25:36.734Z,4
2018-06-27T00:26:46.537Z,4
2018-06-27T00:27:56.615Z,4
2018-06-27T00:29:06.419Z,4
2018-06-27T00:30:15.953Z,8
2018-06-27T00:31:26.062Z,8
2018-06-27T00:32:36.134Z,4
2018-06-27T00:33:45.993Z,4
2018-06-27T00:34:56.148Z,8
2018-06-27T00:36:05.407Z,8
2018-06-27T00:37:15.528Z,8
2018-06-27T00:38:25.328Z,4
2018-06-27T00:39:35.411Z,8
2018-06-27T00:40:45.221Z,8
2018-06-27T00:41:55.034Z,8
2018-06-27T00:43:04.879Z,8
2018-06-27T00:44:14.685Z,8
2018-06-27T00:45:23.954Z,12
2018-06-27T00:46:34.043Z,12
2018-06-27T00:47:43.565Z,8
2018-06-27T00:48:53.678Z,12
2018-06-27T00:50:03.544Z,12
2018-06-27T00:51:13.615Z,12
2018-06-27T00:52:23.696Z,16
2018-06-27T00:53:33.781Z,12
2018-06-27T00:54:43.636Z,16
2018-06-27T00:55:53.170Z,16
2018-06-27T00:57:03.253Z,16
2018-06-27T00:58:13.069Z,20
2018-06-27T00:59:22.877Z,20
2018-06-27T01:00:32.734Z,20
2018-06-27T01:01:42.804Z,20
2018-06-27T01:02:52.876Z,20
2018-06-27T01:04:02.687Z,24
2018-06-27T01:05:12.761Z,24
2018-06-27T01:06:22.881Z,28
2018-06-27T01:07:32.944Z,28
2018-06-27T01:08:43.027Z,28
2018-06-27T01:09:53.095Z,32
2018-06-27T01:11:03.169Z,32
2018-06-27T01:12:13.021Z,36
2018-06-27T01:13:22.816Z,40
2018-06-27T01:14:32.342Z,40
2018-06-27T01:15:42.139Z,44
2018-06-27T01:16:52.224Z,44
2018-06-27T01:18:02.065Z,48
2018-06-27T01:19:11.872Z,52
2018-06-27T01:20:21.686Z,56
2018-06-27T01:21:31.484Z,60
2018-06-27T01:22:41.019Z,64
2018-06-27T01:23:50.862Z,68
2018-06-27T01:25:00.926Z,72
2018-06-27T01:26:10.737Z,76
2018-06-27T01:27:19.980Z,80
2018-06-27T01:28:29.780Z,88
2018-06-27T01:29:39.636Z,92
2018-06-27T01:30:49.726Z,96
2018-06-27T01:31:59.793Z,104
2018-06-27T01:33:09.305Z,108
2018-06-27T01:34:19.094Z,112
2018-06-27T01:35:29.236Z,120
2018-06-27T01:36:39.043Z,124
2018-06-27T01:37:49.111Z,132
2018-06-27T01:38:59.220Z,140
2018-06-27T01:40:09.310Z,148
2018-06-27T01:41:19.164Z,156
2018-06-27T01:42:28.949Z,164
2018-06-27T01:43:39.010Z,172
2018-06-27T01:44:48.879Z,184
2018-06-27T01:45:58.965Z,192
2018-06-27T01:47:09.092Z,204
2018-06-27T01:48:18.619Z,208
2018-06-27T01:49:28.410Z,224
2018-06-27T01:50:38.508Z,232
2018-06-27T01:51:48.312Z,244
2018-06-27T01:52:58.656Z,252
2018-06-27T01:54:08.510Z,268
2018-06-27T01:55:18.585Z,280
2018-06-27T01:56:28.679Z,292
2018-06-27T01:57:38.741Z,300
2018-06-27T01:58:48.605Z,316
2018-06-27T01:59:58.388Z,332
2018-06-27T02:01:08.464Z,344
2018-06-27T02:02:18.547Z,360
2018-06-27T02:03:28.600Z,372
2018-06-27T02:04:38.701Z,392
2018-06-27T02:05:48.505Z,404
2018-06-27T02:06:58.321Z,416
2018-06-27T02:08:08.405Z,436
2018-06-27T02:09:18.264Z,452
2018-06-27T02:10:28.127Z,468
2018-06-27T02:11:38.200Z,484
2018-06-27T02:12:48.271Z,500
2018-06-27T02:13:58.344Z,520
2018-06-27T02:15:08.156Z,536
2018-06-27T02:16:18.009Z,552
2018-06-27T02:17:28.090Z,572
2018-06-27T02:18:38.156Z,592
2018-06-27T02:19:48.219Z,612
2018-06-27T02:20:57.757Z,632
2018-06-27T02:22:07.608Z,652
2018-06-27T02:23:17.681Z,672
2018-06-27T02:24:27.766Z,692
2018-06-27T02:25:37.842Z,712
2018-06-27T02:26:47.920Z,728
2018-06-27T02:27:58.079Z,748
2018-06-27T02:29:08.166Z,768
2018-06-27T02:30:18.247Z,792
2018-06-27T02:31:28.037Z,812
2018-06-27T02:32:38.102Z,832
2018-06-27T02:33:48.227Z,856
2018-06-27T02:34:58.305Z,876
2018-06-27T02:36:08.377Z,896
2018-06-27T02:37:18.488Z,916
2018-06-27T02:38:28.563Z,944
2018-06-27T02:39:38.133Z,960
2018-06-27T02:40:48.014Z,984
2018-06-27T02:41:58.089Z,1008
2018-06-27T02:43:07.923Z,1032
2018-06-27T02:44:17.721Z,1048
2018-06-27T02:45:27.031Z,1072
2018-06-27T02:46:37.103Z,1092
2018-06-27T02:47:47.186Z,1116
2018-06-27T02:48:57.267Z,1136
2018-06-27T02:50:07.066Z,1160
2018-06-27T02:51:17.183Z,1184
2018-06-27T02:52:27.257Z,1204
2018-06-27T02:53:37.069Z,1224
2018-06-27T02:54:46.600Z,1248
2018-06-27T02:55:56.694Z,1272
2018-06-27T02:57:06.558Z,1292
2018-06-27T02:58:16.638Z,1312
2018-06-27T02:59:26.165Z,1332
2018-06-27T03:03:30.932Z,1404
2018-06-27T03:04:41.034Z,1428
2018-06-27T03:05:51.119Z,1448
2018-06-27T03:07:00.935Z,1472
2018-06-27T03:08:10.455Z,1492
2018-06-27T03:09:20.877Z,1512
2018-06-27T03:10:31.011Z,1532
2018-06-27T03:11:40.808Z,1556
2018-06-27T03:12:50.605Z,1576
2018-06-27T03:14:00.709Z,1592
2018-06-27T03:15:10.560Z,1612
2018-06-27T03:16:20.364Z,1636
2018-06-27T03:17:30.476Z,1652
2018-06-27T03:18:40.273Z,1676
2018-06-27T03:19:50.087Z,1696
2018-06-27T03:20:59.670Z,1716
2018-06-27T03:22:08.940Z,1736
2018-06-27T03:23:19.016Z,1752
2018-06-27T03:24:28.540Z,1772
2018-06-27T03:25:38.330Z,1788
2018-06-27T03:26:48.446Z,1808
2018-06-27T03:27:58.506Z,1828
2018-06-27T03:29:08.314Z,1844
2018-06-27T03:30:18.403Z,1868
2018-06-27T03:31:28.469Z,1884
2018-06-27T03:32:38.068Z,1904
2018-06-27T03:33:48.496Z,1920
2018-06-27T03:34:58.786Z,1940
2018-06-27T03:36:08.315Z,1964
2018-06-27T03:37:18.388Z,1980
2018-06-27T03:38:28.250Z,2000
2018-06-27T03:39:37.769Z,2016
2018-06-27T03:40:47.834Z,2036
2018-06-27T03:41:57.646Z,2056
2018-06-27T03:43:07.702Z,2076
2018-06-27T03:44:17.819Z,2100
2018-06-27T03:45:27.900Z,2120
2018-06-27T03:46:37.718Z,2140
2018-06-27T03:47:47.511Z,2164
2018-06-27T03:48:57.052Z,2184
2018-06-27T03:50:06.900Z,2204
2018-06-27T03:51:16.693Z,2224
2018-06-27T03:52:26.486Z,2244
2018-06-27T03:53:36.572Z,2268
2018-06-27T03:54:46.087Z,2288
2018-06-27T03:55:56.200Z,2312
2018-06-27T03:57:06.275Z,2328
2018-06-27T03:58:16.340Z,2332
2018-06-27T03:59:26.411Z,2324
2018-06-27T04:00:36.491Z,2312
2018-06-27T04:01:46.343Z,2316
2018-06-27T04:02:56.410Z,2328
2018-06-27T04:04:05.980Z,2340
2018-06-27T04:05:16.057Z,2352
2018-06-27T04:06:26.128Z,2368
2018-06-27T04:07:35.996Z,2380
2018-06-27T04:08:46.065Z,2392
2018-06-27T04:09:56.120Z,2404
2018-06-27T04:11:05.949Z,2420
2018-06-27T04:12:15.473Z,2432
2018-06-27T04:13:26.165Z,2444
2018-06-27T04:14:36.270Z,2456
2018-06-27T04:15:46.387Z,2468
2018-06-27T04:16:56.453Z,2476
2018-06-27T04:18:05.980Z,2488
2018-06-27T04:19:16.114Z,2504
2018-06-27T04:20:26.181Z,2512
2018-06-27T04:21:35.730Z,2524
2018-06-27T04:22:45.533Z,2536
2018-06-27T04:23:55.323Z,2548
2018-06-27T04:25:05.175Z,2560
2018-06-27T04:26:14.981Z,2576
2018-06-27T04:27:24.801Z,2584
2018-06-27T04:28:34.930Z,2596
2018-06-27T04:29:45.018Z,2608
2018-06-27T04:30:55.150Z,2620
2018-06-27T04:32:04.957Z,2632
2018-06-27T04:33:15.021Z,2644
2018-06-27T04:34:25.093Z,2656
2018-06-27T04:35:34.873Z,2668
2018-06-27T04:36:44.726Z,2684
2018-06-27T04:37:54.535Z,2696
2018-06-27T04:39:04.325Z,2712
2018-06-27T04:40:14.121Z,2724
2018-06-27T04:41:23.659Z,2744
2018-06-27T04:42:33.513Z,2760
2018-06-27T04:43:43.309Z,2772
2018-06-27T04:44:53.368Z,2788
2018-06-27T04:46:03.173Z,2804
2018-06-27T04:47:13.265Z,2824
2018-06-27T04:48:23.386Z,2832
2018-06-27T04:49:33.620Z,2848
2018-06-27T04:50:43.609Z,2860
2018-06-27T04:51:53.686Z,2864
2018-06-27T04:53:03.484Z,2872
2018-06-27T04:54:13.342Z,2888
2018-06-27T04:55:23.137Z,2896
2018-06-27T04:56:32.947Z,2904
2018-06-27T04:57:43.025Z,2904
2018-06-27T04:58:52.822Z,2900
2018-06-27T05:00:02.680Z,2920
2018-06-27T05:01:12.768Z,2924
2018-06-27T05:02:22.844Z,2928
2018-06-27T05:03:32.102Z,2936
2018-06-27T05:04:41.640Z,2940
2018-06-27T05:05:51.502Z,2944
2018-06-27T05:07:01.641Z,2948
2018-06-27T05:08:11.176Z,2960
2018-06-27T05:09:20.995Z,2964
2018-06-27T05:10:30.792Z,2968
2018-06-27T05:11:40.895Z,2976
2018-06-27T05:12:50.766Z,2984
2018-06-27T05:14:00.603Z,3000
2018-06-27T05:15:10.708Z,3012
2018-06-27T05:16:20.235Z,3016
2018-06-27T05:17:30.352Z,3028
2018-06-27T05:18:40.168Z,3040
2018-06-27T05:19:50.218Z,3048
2018-06-27T05:21:00.020Z,3064
2018-06-27T05:22:09.559Z,3084
2018-06-27T05:23:19.690Z,3108
2018-06-27T05:24:29.777Z,3132
2018-06-27T05:25:39.570Z,3168
2018-06-27T05:26:49.370Z,3196
2018-06-27T05:27:59.463Z,3220
2018-06-27T05:29:09.326Z,3244
2018-06-27T05:30:19.380Z,3272
2018-06-27T05:31:28.631Z,3304
2018-06-27T05:32:38.903Z,3332
2018-06-27T05:33:48.991Z,3368
2018-06-27T05:34:59.161Z,3420
2018-06-27T05:36:09.237Z,3460
2018-06-27T05:37:19.051Z,3508
2018-06-27T05:38:28.583Z,3568
2018-06-27T05:39:38.394Z,3628
2018-06-27T05:40:48.520Z,3692
2018-06-27T05:41:58.611Z,3756
2018-06-27T05:43:08.421Z,3828
2018-06-27T05:44:18.712Z,3912
2018-06-27T05:45:28.679Z,4004
2018-06-27T05:46:38.804Z,4116
2018-06-27T05:47:48.601Z,4228
2018-06-27T05:48:58.672Z,4344
2018-06-27T05:50:08.743Z,4452
2018-06-27T05:51:18.804Z,4580
2018-06-27T05:52:28.379Z,4724
2018-06-27T05:53:38.204Z,4884
2018-06-27T05:54:48.002Z,5016
2018-06-27T05:55:58.086Z,5100
2018-06-27T05:57:08.166Z,5124
2018-06-27T05:58:18.240Z,5164
2018-06-27T05:59:28.127Z,5256
2018-06-27T06:00:37.926Z,5360
2018-06-27T06:01:47.456Z,5464
2018-06-27T06:02:57.550Z,5572
2018-06-27T06:04:07.693Z,5664
2018-06-27T06:05:17.818Z,5732
2018-06-27T06:06:27.885Z,5788
2018-06-27T06:07:37.158Z,5760
2018-06-27T06:08:47.227Z,5440
2018-06-27T06:09:57.365Z,5416
2018-06-27T06:11:07.472Z,5416
2018-06-27T06:12:17.348Z,5516
2018-06-27T06:13:26.909Z,5652
2018-06-27T06:14:36.437Z,5872
2018-06-27T06:15:46.291Z,6096
2018-06-27T06:16:56.372Z,6300
2018-06-27T06:18:06.450Z,6436
2018-06-27T06:19:16.259Z,6568
2018-06-27T06:20:25.784Z,6624
2018-06-27T06:21:35.637Z,6632
2018-06-27T06:22:45.439Z,6648
2018-06-27T06:23:54.965Z,6676
2018-06-27T06:25:05.038Z,6648
2018-06-27T06:26:15.125Z,6548
2018-06-27T06:27:25.250Z,6468
2018-06-27T06:28:35.317Z,6404
2018-06-27T06:29:45.124Z,6428
2018-06-27T06:30:55.192Z,6424
2018-06-27T06:32:05.328Z,6448
2018-06-27T06:33:15.250Z,6480
2018-06-27T06:34:25.057Z,6408
2018-06-27T06:35:35.132Z,6444
2018-06-27T06:36:44.686Z,6376
2018-06-27T06:37:54.781Z,6284
2018-06-27T06:39:05.120Z,6208
2018-06-27T06:40:15.511Z,6164
2018-06-27T06:41:25.690Z,6068
2018-06-27T06:42:35.776Z,5988
2018-06-27T06:43:45.903Z,5908
2018-06-27T06:44:56.025Z,5888
2018-06-27T06:46:05.995Z,6196
2018-06-27T06:47:15.925Z,5680
2018-06-27T06:48:25.715Z,5840
2018-06-27T06:49:35.530Z,5544
2018-06-27T06:50:45.396Z,5596
2018-06-27T06:51:54.927Z,5404
2018-06-27T06:53:04.756Z,5680
2018-06-27T06:54:14.843Z,5420
2018-06-27T06:55:24.633Z,5460
2018-06-27T06:56:34.777Z,5112
2018-06-27T06:57:44.859Z,5384
2018-06-27T06:58:54.467Z,5052
2018-06-27T07:00:04.275Z,4892
2018-06-27T07:01:13.802Z,5336
2018-06-27T07:02:23.668Z,5284
2018-06-27T07:03:33.473Z,5296
2018-06-27T07:04:43.543Z,5280
2018-06-27T07:05:53.078Z,5272
2018-06-27T07:07:02.878Z,5364
2018-06-27T07:08:12.188Z,5348
2018-06-27T07:09:22.254Z,5276
2018-06-27T07:10:31.795Z,5184
2018-06-27T07:11:41.593Z,5080
2018-06-27T07:12:51.119Z,4956
2018-06-27T07:14:01.253Z,4860
2018-06-27T07:15:11.064Z,4764
2018-06-27T07:16:20.591Z,4656
2018-06-27T07:17:30.141Z,4540
2018-06-27T07:18:40.211Z,4432
2018-06-27T07:19:50.052Z,4368
2018-06-27T07:20:59.857Z,4312
2018-06-27T07:22:09.404Z,4280
2018-06-27T07:23:19.481Z,4288
2018-06-27T07:24:28.760Z,4292
2018-06-27T07:25:38.625Z,4284
2018-06-27T07:26:48.431Z,4284
2018-06-27T07:27:58.515Z,4304
2018-06-27T07:29:08.584Z,4352
2018-06-27T07:30:18.142Z,4384
2018-06-27T07:31:28.300Z,4392
2018-06-27T07:32:37.828Z,4396
2018-06-27T07:33:47.357Z,4400
2018-06-27T07:34:57.161Z,4440
2018-06-27T07:36:06.924Z,4452
2018-06-27T07:37:16.787Z,4472
2018-06-27T07:38:26.886Z,4488
2018-06-27T07:39:36.968Z,4500
2018-06-27T07:40:47.041Z,4516
2018-06-27T07:41:57.141Z,4540
2018-06-27T07:43:06.747Z,4584
2018-06-27T07:44:16.835Z,4616
2018-06-27T07:45:26.935Z,4668
2018-06-27T07:46:36.480Z,4740
2018-06-27T07:47:46.292Z,4812
2018-06-27T07:48:56.422Z,4908
2018-06-27T07:50:06.233Z,4996
2018-06-27T07:51:16.030Z,5092
2018-06-27T07:52:26.115Z,5160
2018-06-27T07:53:35.921Z,5196
2018-06-27T07:54:45.564Z,5208
2018-06-27T07:55:55.112Z,5184
2018-06-27T07:57:04.928Z,5140
2018-06-27T07:58:14.749Z,5068
2018-06-27T07:59:24.026Z,4992
2018-06-27T08:00:33.609Z,4920
2018-06-27T08:01:43.433Z,4832
2018-06-27T08:02:53.504Z,4752
2018-06-27T08:04:03.569Z,4684
2018-06-27T08:05:13.642Z,4624
2018-06-27T08:06:23.514Z,4568
2018-06-27T08:07:33.622Z,4520
2018-06-27T08:08:43.431Z,4488
2018-06-27T08:09:53.508Z,4472
2018-06-27T08:11:03.589Z,4444
2018-06-27T08:12:13.467Z,4436
2018-06-27T08:13:23.336Z,4428
2018-06-27T08:14:32.604Z,4420
2018-06-27T08:15:42.395Z,4424
2018-06-27T08:16:52.210Z,4420
2018-06-27T08:18:03.164Z,4416
2018-06-27T08:19:13.183Z,4420
2018-06-27T08:20:23.267Z,4412
2018-06-27T08:21:33.086Z,4432
2018-06-27T08:22:43.217Z,4452
2018-06-27T08:23:53.063Z,4468
2018-06-27T08:25:02.858Z,4476
2018-06-27T08:26:13.171Z,4500
2018-06-27T08:27:23.337Z,4508
2018-06-27T08:28:32.605Z,4532
2018-06-27T08:29:42.203Z,4536
2018-06-27T08:30:52.274Z,4552
2018-06-27T08:32:02.353Z,4568
2018-06-27T08:33:11.899Z,4580
2018-06-27T08:34:21.974Z,4588
2018-06-27T08:35:31.834Z,4604
2018-06-27T08:36:41.650Z,4620
2018-06-27T08:37:51.460Z,4632
2018-06-27T08:39:01.551Z,4636
2018-06-27T08:40:11.629Z,4644
2018-06-27T08:41:21.470Z,4660
2018-06-27T08:42:31.307Z,4664
2018-06-27T08:43:41.217Z,4644
2018-06-27T08:44:51.190Z,4696
2018-06-27T08:46:00.993Z,4712
2018-06-27T08:47:11.102Z,4728
2018-06-27T08:48:21.187Z,4736
2018-06-27T08:49:30.989Z,4740
2018-06-27T08:50:41.080Z,4760
2018-06-27T08:51:50.622Z,4776
2018-06-27T08:53:00.751Z,4796
2018-06-27T08:54:10.838Z,4808
2018-06-27T08:55:20.646Z,4832
2018-06-27T08:56:30.452Z,4844
2018-06-27T08:57:40.277Z,4860
2018-06-27T08:58:50.690Z,4884
2018-06-27T09:00:00.441Z,4896
2018-06-27T09:01:10.245Z,4916
2018-06-27T09:02:19.502Z,4940
2018-06-27T09:03:29.293Z,4968
2018-06-27T09:04:39.407Z,4992
2018-06-27T09:05:48.947Z,5028
2018-06-27T09:06:58.759Z,5064
2018-06-27T09:08:08.832Z,5112
2018-06-27T09:09:18.647Z,5152
2018-06-27T09:10:28.482Z,5188
2018-06-27T09:11:38.287Z,5220
2018-06-27T09:12:48.107Z,5248
2018-06-27T09:13:58.179Z,5256
2018-06-27T09:15:07.980Z,5288
2018-06-27T09:16:17.571Z,5220
2018-06-27T09:17:27.378Z,5224
2018-06-27T09:18:37.280Z,5236
2018-06-27T09:19:46.926Z,5288
2018-06-27T09:20:57.026Z,5292
2018-06-27T09:22:06.634Z,5320
2018-06-27T09:23:16.724Z,5328
2018-06-27T09:24:26.525Z,5344
2018-06-27T09:25:36.073Z,5340
2018-06-27T09:26:45.617Z,5340
2018-06-27T09:27:55.487Z,5364
2018-06-27T09:29:05.314Z,5376
2018-06-27T09:30:14.845Z,5400
2018-06-27T09:31:24.459Z,5416
2018-06-27T09:32:34.554Z,5436
2018-06-27T09:33:44.400Z,5448
2018-06-27T09:34:53.925Z,5468
2018-06-27T09:36:03.197Z,5472
2018-06-27T09:37:13.291Z,5488
2018-06-27T09:38:23.379Z,5512
2018-06-27T09:39:33.239Z,5536
2018-06-27T09:40:43.324Z,5556
2018-06-27T09:41:52.883Z,5568
2018-06-27T09:43:03.054Z,5588
2018-06-27T09:44:12.871Z,5624
2018-06-27T09:45:22.465Z,5664
2018-06-27T09:46:32.266Z,5692
2018-06-27T09:47:42.060Z,5704
2018-06-27T09:48:51.862Z,5724
2018-06-27T09:50:01.665Z,5776
2018-06-27T09:51:11.829Z,5860
2018-06-27T09:52:21.913Z,5948
2018-06-27T09:53:31.739Z,6000
2018-06-27T09:54:41.549Z,6020
2018-06-27T09:55:51.625Z,6028
2018-06-27T09:57:01.397Z,6028
2018-06-27T09:58:10.926Z,6048
2018-06-27T09:59:21.003Z,6084
2018-06-27T10:00:30.835Z,6140
2018-06-27T10:01:40.940Z,6124
2018-06-27T10:02:50.792Z,6240
2018-06-27T10:04:00.612Z,6352
2018-06-27T10:05:10.440Z,6556
2018-06-27T10:06:19.714Z,6744
2018-06-27T10:07:29.525Z,6856
2018-06-27T10:08:39.664Z,6924
2018-06-27T10:09:49.755Z,7016
2018-06-27T10:10:59.843Z,7076
2018-06-27T10:12:09.916Z,7148
2018-06-27T10:13:19.482Z,7176
2018-06-27T10:14:29.329Z,7172
2018-06-27T10:15:39.141Z,7120
2018-06-27T10:16:48.952Z,7144
2018-06-27T10:17:59.127Z,7152
2018-06-27T10:19:08.933Z,7176
2018-06-27T10:20:19.053Z,7220
2018-06-27T10:21:28.878Z,7316
2018-06-27T10:22:39.112Z,7452
2018-06-27T10:23:49.424Z,7580
2018-06-27T10:24:58.952Z,7568
2018-06-27T10:26:08.533Z,7548
2018-06-27T10:27:18.340Z,7484
2018-06-27T10:28:28.326Z,7404
2018-06-27T10:29:38.282Z,7544
2018-06-27T10:30:48.370Z,7596
2018-06-27T10:31:58.229Z,7636
2018-06-27T10:33:08.313Z,7716
2018-06-27T10:34:18.124Z,7756
2018-06-27T10:35:28.200Z,7376
2018-06-27T10:36:37.473Z,7092
2018-06-27T10:37:47.065Z,6972
2018-06-27T10:38:57.153Z,7000
2018-06-27T10:40:06.981Z,6700
2018-06-27T10:41:16.527Z,7168
2018-06-27T10:42:26.347Z,7468
2018-06-27T10:43:35.667Z,7196
2018-06-27T10:44:45.319Z,7028
2018-06-27T10:45:55.421Z,6788
2018-06-27T10:47:05.517Z,6932
2018-06-27T10:48:15.321Z,7232
2018-06-27T10:49:25.179Z,7304
2018-06-27T10:50:34.719Z,7340
2018-06-27T10:51:44.782Z,7396
2018-06-27T10:52:54.857Z,7440
2018-06-27T10:54:04.942Z,7492
2018-06-27T10:55:14.256Z,7444
2018-06-27T10:56:24.325Z,7272
2018-06-27T10:57:34.131Z,7100
2018-06-27T10:58:44.198Z,7060
2018-06-27T10:59:53.477Z,7108
2018-06-27T11:01:03.448Z,7160
2018-06-27T11:02:12.987Z,7272
2018-06-27T11:03:22.811Z,7412
2018-06-27T11:04:32.618Z,7568
2018-06-27T11:05:42.710Z,7704
2018-06-27T11:06:52.561Z,7824
2018-06-27T11:08:02.365Z,7948
2018-06-27T11:09:11.908Z,8080
2018-06-27T11:10:21.718Z,8260
2018-06-27T11:11:31.541Z,8448
2018-06-27T11:12:41.682Z,8604
2018-06-27T11:13:51.750Z,8756
2018-06-27T11:15:01.820Z,8916
2018-06-27T11:16:11.080Z,9076
2018-06-27T11:17:20.888Z,9276
2018-06-27T11:18:30.749Z,9468
2018-06-27T11:19:40.901Z,9616
2018-06-27T11:20:50.710Z,9784
2018-06-27T11:21:59.995Z,10044
2018-06-27T11:23:09.263Z,10364
2018-06-27T11:24:19.396Z,10740
2018-06-27T11:25:29.467Z,11220
2018-06-27T11:26:39.544Z,11748
2018-06-27T11:27:49.081Z,12088
2018-06-27T11:28:59.180Z,12068
2018-06-27T11:30:08.785Z,11804
2018-06-27T11:31:18.883Z,11668
2018-06-27T11:32:28.436Z,11832
2018-06-27T11:33:38.235Z,11784
2018-06-27T11:34:48.042Z,11844
2018-06-27T11:35:58.165Z,11856
2018-06-27T11:37:08.259Z,12648
2018-06-27T11:38:17.872Z,13768
2018-06-27T11:39:27.697Z,14892
2018-06-27T11:40:37.781Z,19424
2018-06-27T11:41:47.920Z,58976
2018-06-27T11:42:57.732Z,93664
2018-06-27T11:44:07.559Z,89408
2018-06-27T11:45:17.374Z,86880
2018-06-27T11:46:27.180Z,86464
2018-06-27T11:47:37.315Z,88192
2018-06-27T11:48:47.114Z,84576
2018-06-27T11:49:57.191Z,82720
2018-06-27T11:51:07.009Z,87264
2018-06-27T11:52:17.109Z,87264
2018-06-27T11:53:27.306Z,88480
2018-06-27T11:54:37.390Z,92064
2018-06-27T11:55:47.202Z,87232
2018-06-27T11:56:57.292Z,88704
2018-06-27T11:58:07.386Z,91680
2018-06-27T11:59:17.251Z,92352
2018-06-27T12:00:27.066Z,92000
2018-06-27T12:01:37.147Z,91424
2018-06-27T12:02:47.221Z,93152
2018-06-27T12:03:57.037Z,91840
2018-06-27T12:05:07.192Z,93728
2018-06-27T12:06:17.264Z,91360
2018-06-27T12:07:27.094Z,90304
2018-06-27T12:08:37.600Z,85760
2018-06-27T12:09:47.708Z,85280
2018-06-27T12:10:57.591Z,90720
2018-06-27T12:12:07.421Z,91296
2018-06-27T12:13:17.231Z,91040
2018-06-27T12:14:27.056Z,90336
2018-06-27T12:15:37.148Z,90592
2018-06-27T12:16:47.385Z,87232
2018-06-27T12:17:57.588Z,85248
2018-06-27T12:19:07.703Z,85792
2018-06-27T12:20:17.803Z,78784
2018-06-27T12:21:27.906Z,80064
2018-06-27T12:22:37.801Z,84544
2018-06-27T12:23:47.094Z,84960
2018-06-27T12:24:57.234Z,87712
2018-06-27T12:26:07.072Z,90464
2018-06-27T12:27:16.895Z,86016
2018-06-27T12:28:26.206Z,86016
2018-06-27T12:29:36.021Z,88832
2018-06-27T12:30:45.585Z,92928
2018-06-27T12:31:55.686Z,91488
2018-06-27T12:33:05.501Z,76960
2018-06-27T12:34:15.652Z,58848
2018-06-27T12:35:25.473Z,65984
2018-06-27T12:36:35.324Z,62624
2018-06-27T12:37:45.426Z,42848
2018-06-27T12:38:55.266Z,50464
2018-06-27T12:40:05.143Z,70464
2018-06-27T12:41:14.698Z,76640
2018-06-27T12:42:24.811Z,64928
2018-06-27T12:43:34.643Z,54016
2018-06-27T12:44:44.472Z,74656
2018-06-27T12:45:54.603Z,94240
2018-06-27T12:47:04.423Z,88768
2018-06-27T12:48:14.538Z,77088
2018-06-27T12:49:24.625Z,86688
2018-06-27T12:50:34.182Z,89056
2018-06-27T12:51:44.326Z,36992
2018-06-27T12:52:54.418Z,39904
2018-06-27T12:54:04.508Z,72064
2018-06-27T12:55:14.602Z,97696
2018-06-27T12:56:24.701Z,90528
2018-06-27T12:57:34.361Z,89184
2018-06-27T12:58:44.197Z,93312
2018-06-27T12:59:54.681Z,96448
2018-06-27T13:01:04.791Z,97696
2018-06-27T13:02:14.356Z,98752
2018-06-27T13:03:24.435Z,95872
2018-06-27T13:04:33.941Z,97472
2018-06-27T13:05:43.512Z,96032
2018-06-27T13:06:53.609Z,97632
2018-06-27T13:08:03.706Z,101088
2018-06-27T13:09:13.482Z,101152
2018-06-27T13:10:23.930Z,93920
2018-06-27T13:11:34.031Z,93024
2018-06-27T13:12:44.125Z,104608
2018-06-27T13:13:53.949Z,90592
2018-06-27T13:15:03.562Z,78848
2018-06-27T13:16:13.112Z,56832
2018-06-27T13:17:22.928Z,55392
2018-06-27T13:18:32.753Z,48160
2018-06-27T13:19:42.843Z,76544
2018-06-27T13:20:52.984Z,46048
2018-06-27T13:22:02.824Z,38784
2018-06-27T13:23:12.914Z,42880
2018-06-27T13:24:22.467Z,53184
2018-06-27T13:25:32.292Z,52480
2018-06-27T13:26:42.176Z,89088
2018-06-27T13:27:51.983Z,60128
2018-06-27T13:29:02.094Z,45536
2018-06-27T13:30:11.941Z,33024
2018-06-27T13:31:21.772Z,25600
2018-06-27T13:32:31.663Z,24992
2018-06-27T13:33:41.762Z,26208
2018-06-27T13:34:52.056Z,27744
2018-06-27T13:36:02.258Z,28064
2018-06-27T13:37:12.077Z,29024
2018-06-27T13:38:21.676Z,27872
2018-06-27T13:39:31.768Z,30432
2018-06-27T13:40:41.343Z,32608
2018-06-27T13:41:51.172Z,34144
2018-06-27T13:43:00.993Z,32960
2018-06-27T13:44:11.140Z,39552
2018-06-27T13:45:20.978Z,44992
2018-06-27T13:46:30.792Z,38400
2018-06-27T13:47:40.598Z,34048
2018-06-27T13:48:50.140Z,56896
2018-06-27T13:50:00.250Z,47808
2018-06-27T13:51:09.841Z,38688
2018-06-27T13:52:19.656Z,37792
2018-06-27T13:53:29.745Z,41728
2018-06-27T13:54:39.033Z,40544
2018-06-27T13:55:49.195Z,34144
2018-06-27T13:56:59.010Z,27872
2018-06-27T13:58:08.830Z,27424
2018-06-27T13:59:18.957Z,28192
2018-06-27T14:00:29.155Z,27168
2018-06-27T14:01:39.713Z,27488
2018-06-27T14:02:49.542Z,29120
2018-06-27T14:03:59.363Z,29056
2018-06-27T14:05:09.185Z,31360
2018-06-27T14:06:19.365Z,33856
2018-06-27T14:07:29.551Z,38400
2018-06-27T14:08:39.358Z,36352
2018-06-27T14:09:49.482Z,44960
2018-06-27T14:10:59.563Z,43584
2018-06-27T14:12:08.840Z,56256
2018-06-27T14:13:19.003Z,98528
2018-06-27T14:14:28.834Z,100064
2018-06-27T14:15:38.918Z,91904
2018-06-27T14:16:49.013Z,56480
2018-06-27T14:17:59.102Z,103872
2018-06-27T14:19:09.239Z,39104
2018-06-27T14:20:19.333Z,40064
2018-06-27T14:21:29.161Z,61504
2018-06-27T14:22:38.997Z,75008
2018-06-27T14:23:48.811Z,64352
2018-06-27T14:24:58.679Z,91136
2018-06-27T14:26:08.504Z,68672
2018-06-27T14:27:18.326Z,71520
2018-06-27T14:28:28.143Z,92032
2018-06-27T14:29:37.428Z,86880
2018-06-27T14:30:47.569Z,84320
2018-06-27T14:31:56.846Z,89152
2018-06-27T14:33:06.780Z,80736
2018-06-27T14:34:16.342Z,78720
2018-06-27T14:35:25.623Z,76800
2018-06-27T14:36:35.503Z,44128
2018-06-27T14:37:45.847Z,61952
2018-06-27T14:38:56.024Z,64672
2018-06-27T14:40:05.980Z,81280
2018-06-27T14:41:16.196Z,50112
2018-06-27T14:42:25.791Z,96480
2018-06-27T14:43:35.607Z,88832
2018-06-27T14:44:44.900Z,36096
2018-06-27T14:45:55.006Z,34176
2018-06-27T14:47:04.563Z,33024
2018-06-27T14:48:14.167Z,42336
2018-06-27T14:49:24.763Z,42240
2018-06-27T14:50:34.985Z,35104
2018-06-27T14:51:45.255Z,39520
2018-06-27T14:52:55.102Z,67904
2018-06-27T14:54:04.974Z,90688
2018-06-27T14:55:14.799Z,84480
2018-06-27T14:56:24.886Z,85984
2018-06-27T14:57:34.721Z,76384
2018-06-27T14:58:44.565Z,87040
2018-06-27T14:59:54.735Z,101344
2018-06-27T15:01:04.829Z,104224
2018-06-27T15:02:14.928Z,69216
2018-06-27T15:03:24.752Z,61056
2018-06-27T15:04:34.597Z,53056
2018-06-27T15:05:44.206Z,51008
2018-06-27T15:06:54.304Z,50656
2018-06-27T15:08:04.416Z,50560
2018-06-27T15:09:13.974Z,52384
2018-06-27T15:10:23.814Z,53760
2018-06-27T15:11:33.715Z,52864
2018-06-27T15:12:43.265Z,52832
2018-06-27T15:13:53.088Z,56768
2018-06-27T15:15:03.177Z,61760
2018-06-27T15:16:12.740Z,67616
2018-06-27T15:17:22.605Z,67168
2018-06-27T15:18:32.410Z,72064
2018-06-27T15:19:41.987Z,70912
2018-06-27T15:20:51.806Z,69184
2018-06-27T15:22:01.921Z,71744
2018-06-27T15:23:11.794Z,74752
2018-06-27T15:24:22.001Z,72832
2018-06-27T15:25:31.843Z,54464
2018-06-27T15:26:41.734Z,38816
2018-06-27T15:27:51.817Z,43072
2018-06-27T15:29:01.432Z,44032
2018-06-27T15:30:10.731Z,44352
2018-06-27T15:31:20.829Z,51936
2018-06-27T15:32:30.943Z,52224
2018-06-27T15:33:41.133Z,59072
2018-06-27T15:34:51.454Z,64480